createdAt,value
2023-05-18T00:00:11.636Z,91.40
2023-05-18T00:02:41.800Z,91.50
2023-05-18T00:05:11.761Z,91.30
2023-05-18T00:07:41.110Z,91.40
2023-05-18T00:10:11.630Z,91.40
2023-05-18T00:12:40.243Z,91.50
2023-05-18T00:15:11.500Z,91.40
2023-05-18T00:17:40.017Z,91.70
2023-05-18T00:20:09.805Z,91.50
2023-05-18T00:22:39.257Z,91.60
2023-05-18T00:25:08.090Z,91.50
2023-05-18T00:27:36.468Z,91.50
2023-05-18T00:30:06.356Z,91.60
2023-05-18T00:32:36.209Z,91.70
2023-05-18T00:35:05.267Z,91.80
2023-05-18T00:37:33.739Z,91.70
2023-05-18T00:40:02.225Z,91.90
2023-05-18T00:42:30.745Z,91.60
2023-05-18T00:44:59.159Z,91.70
2023-05-18T00:47:27.679Z,91.70
2023-05-18T00:49:57.486Z,91.70
2023-05-18T00:52:26.283Z,91.70
2023-05-18T00:54:55.867Z,91.80
2023-05-18T00:57:24.482Z,91.80
2023-05-18T00:59:52.901Z,91.80
2023-05-18T01:02:21.401Z,91.90
2023-05-18T01:04:49.905Z,91.90
2023-05-18T01:07:23.222Z,91.80
2023-05-18T01:09:52.201Z,91.90
2023-05-18T01:12:34.542Z,92.00
2023-05-18T01:15:09.859Z,92.10
2023-05-18T01:18:04.868Z,92.10
2023-05-18T01:20:39.170Z,92.10
2023-05-18T01:23:44.910Z,92.10
2023-05-18T01:26:17.427Z,92.30
2023-05-18T01:28:48.172Z,92.20
2023-05-18T01:31:17.172Z,92.10
2023-05-18T01:33:45.995Z,92.00
2023-05-18T01:36:14.660Z,92.10
2023-05-18T01:38:44.346Z,92.20
2023-05-18T01:41:22.485Z,92.20
2023-05-18T01:44:02.324Z,92.40
2023-05-18T01:46:39.351Z,92.30
2023-05-18T01:49:15.731Z,92.40
2023-05-18T01:51:47.520Z,92.40
2023-05-18T01:54:20.919Z,92.30
2023-05-18T01:56:52.629Z,92.30
2023-05-18T01:59:22.245Z,92.40
2023-05-18T02:01:50.687Z,92.70
2023-05-18T02:04:28.409Z,92.40
2023-05-18T02:06:57.381Z,92.30
2023-05-18T02:09:25.835Z,92.40
2023-05-18T02:11:55.638Z,92.30
2023-05-18T02:14:26.225Z,92.50
2023-05-18T02:16:54.749Z,92.50
2023-05-18T02:19:25.346Z,92.30
2023-05-18T02:21:55.218Z,92.50
2023-05-18T02:24:24.806Z,92.50
2023-05-18T02:26:53.259Z,92.50
2023-05-18T02:29:23.033Z,92.50
2023-05-18T02:31:51.691Z,92.60
2023-05-18T02:34:21.981Z,92.50
2023-05-18T02:36:50.414Z,92.50
2023-05-18T02:39:19.298Z,92.50
2023-05-18T02:41:47.683Z,92.60
2023-05-18T02:44:16.157Z,92.70
2023-05-18T02:46:46.049Z,92.60
2023-05-18T02:49:14.591Z,92.70
2023-05-18T02:51:43.855Z,92.70
2023-05-18T02:54:13.204Z,92.80
2023-05-18T02:56:43.363Z,92.70
2023-05-18T02:59:33.724Z,92.60
2023-05-18T03:02:03.538Z,92.70
2023-05-18T03:04:32.745Z,92.50
2023-05-18T03:07:02.812Z,92.50
2023-05-18T03:09:31.696Z,92.70
2023-05-18T03:12:01.248Z,92.70
2023-05-18T03:14:30.367Z,92.70
2023-05-18T03:16:59.336Z,92.70
2023-05-18T03:19:29.552Z,92.70
2023-05-18T03:21:58.963Z,92.70
2023-05-18T03:24:30.411Z,92.70
2023-05-18T03:27:01.094Z,92.50
2023-05-18T03:29:31.459Z,92.60
2023-05-18T03:32:01.530Z,92.70
2023-05-18T03:34:31.369Z,92.60
2023-05-18T03:37:00.113Z,92.70
2023-05-18T03:39:28.655Z,92.80
2023-05-18T03:41:57.065Z,92.70
2023-05-18T03:44:25.938Z,92.70
2023-05-18T03:46:54.752Z,92.70
2023-05-18T03:49:23.388Z,92.80
2023-05-18T03:51:54.851Z,93.20
2023-05-18T03:54:24.143Z,93.00
2023-05-18T03:56:53.278Z,92.90
2023-05-18T03:59:21.677Z,93.00
2023-05-18T04:01:53.949Z,93.00
2023-05-18T04:04:27.559Z,93.00
2023-05-18T04:06:57.829Z,93.00
2023-05-18T04:09:28.113Z,93.00
2023-05-18T04:11:56.629Z,93.00
2023-05-18T04:14:28.205Z,93.10
2023-05-18T04:16:58.398Z,93.10
2023-05-18T04:19:28.378Z,93.10
2023-05-18T04:22:00.019Z,93.10
2023-05-18T04:24:28.488Z,93.20
2023-05-18T04:26:59.431Z,93.10
2023-05-18T04:29:29.133Z,93.20
2023-05-18T04:32:01.123Z,93.10
2023-05-18T04:34:31.374Z,93.10
2023-05-18T04:37:03.233Z,93.30
2023-05-18T04:39:32.643Z,93.30
2023-05-18T04:42:01.665Z,93.20
2023-05-18T04:44:34.011Z,93.30
2023-05-18T04:47:04.452Z,93.30
2023-05-18T04:49:33.207Z,93.30
2023-05-18T04:52:02.992Z,93.70
2023-05-18T04:54:31.969Z,93.40
2023-05-18T04:57:02.223Z,93.40
2023-05-18T04:59:30.652Z,93.50
2023-05-18T05:01:59.059Z,93.80
2023-05-18T05:04:27.809Z,93.80
2023-05-18T05:06:56.298Z,93.40
2023-05-18T05:09:26.056Z,93.40
2023-05-18T05:11:56.345Z,93.50
2023-05-18T05:14:25.532Z,93.50
2023-05-18T05:16:54.803Z,93.50
2023-05-18T05:19:23.605Z,93.40
2023-05-18T05:21:52.258Z,93.50
2023-05-18T05:24:20.655Z,93.40
2023-05-18T05:26:50.512Z,93.20
2023-05-18T05:29:19.970Z,93.20
2023-05-18T05:31:48.410Z,93.20
2023-05-18T05:34:16.880Z,93.30
2023-05-18T05:36:45.504Z,93.70
2023-05-18T05:39:13.901Z,93.40
2023-05-18T05:41:42.304Z,93.40
2023-05-18T05:44:12.202Z,93.60
2023-05-18T05:46:40.765Z,93.20
2023-05-18T05:49:11.360Z,93.30
2023-05-18T05:51:39.891Z,93.40
2023-05-18T05:54:10.672Z,93.30
2023-05-18T05:56:39.694Z,93.60
2023-05-18T05:59:08.255Z,93.20
2023-05-18T06:01:38.128Z,93.30
2023-05-18T06:04:10.814Z,93.30
2023-05-18T06:06:39.606Z,93.30
2023-05-18T06:09:09.140Z,93.40
2023-05-18T06:11:37.991Z,93.30
2023-05-18T06:14:06.532Z,93.40
2023-05-18T06:16:35.406Z,93.30
2023-05-18T06:19:05.705Z,93.40
2023-05-18T06:21:34.167Z,93.70
2023-05-18T06:24:05.083Z,93.20
2023-05-18T06:26:49.423Z,93.10
2023-05-18T06:29:38.210Z,93.20
2023-05-18T06:32:29.645Z,93.20
2023-05-18T06:35:00.719Z,93.20
2023-05-18T06:37:29.198Z,93.00
2023-05-18T06:39:57.689Z,93.10
2023-05-18T06:42:26.595Z,93.00
2023-05-18T06:45:04.682Z,93.00
2023-05-18T06:48:02.400Z,93.00
2023-05-18T06:50:34.095Z,92.90
2023-05-18T06:53:04.466Z,92.90
2023-05-18T06:55:33.494Z,92.80
2023-05-18T06:58:02.734Z,92.80
2023-05-18T07:00:31.276Z,92.70
2023-05-18T07:02:59.755Z,92.60
2023-05-18T07:05:30.406Z,92.70
2023-05-18T07:08:00.422Z,92.70
2023-05-18T07:10:29.039Z,92.60
2023-05-18T07:12:58.102Z,92.40
2023-05-18T07:15:26.758Z,92.50
2023-05-18T07:17:55.246Z,92.60
2023-05-18T07:20:26.182Z,92.50
2023-05-18T07:22:56.142Z,92.50
2023-05-18T07:25:26.251Z,92.60
2023-05-18T07:27:55.680Z,92.50
2023-05-18T07:30:26.439Z,92.50
2023-05-18T07:32:56.574Z,92.50
2023-05-18T07:35:26.451Z,92.30
2023-05-18T07:37:55.300Z,92.50
2023-05-18T07:40:25.128Z,92.60
2023-05-18T07:42:53.954Z,92.40
2023-05-18T07:45:23.899Z,92.30
2023-05-18T07:47:52.426Z,92.30
2023-05-18T07:50:21.000Z,92.30
2023-05-18T07:52:49.423Z,92.10
2023-05-18T07:55:18.274Z,92.10
2023-05-18T07:57:48.018Z,92.20
2023-05-18T08:00:18.411Z,92.10
2023-05-18T08:02:47.372Z,92.20
2023-05-18T08:05:15.862Z,92.10
2023-05-18T08:07:44.204Z,92.10
2023-05-18T08:10:12.767Z,91.90
2023-05-18T08:12:41.140Z,91.90
2023-05-18T08:15:12.634Z,91.70
2023-05-18T08:17:41.214Z,91.50
2023-05-18T08:20:11.839Z,91.60
2023-05-18T08:22:40.354Z,91.60
2023-05-18T08:25:10.346Z,91.40
2023-05-18T08:27:38.834Z,91.40
2023-05-18T08:30:08.756Z,91.20
2023-05-18T08:32:38.577Z,90.80
2023-05-18T08:35:10.087Z,90.90
2023-05-18T08:37:39.719Z,90.90
2023-05-18T08:40:11.494Z,90.70
2023-05-18T08:42:50.852Z,90.60
2023-05-18T08:45:27.081Z,90.30
2023-05-18T08:47:58.465Z,90.10
2023-05-18T08:50:28.795Z,90.20
2023-05-18T08:53:01.895Z,90.00
2023-05-18T08:55:34.747Z,90.10
2023-05-18T08:58:04.901Z,89.70
2023-05-18T09:00:34.412Z,89.30
2023-05-18T09:03:06.461Z,89.20
2023-05-18T09:05:35.282Z,88.90
2023-05-18T09:08:04.511Z,88.50
2023-05-18T09:10:34.942Z,88.60
2023-05-18T09:13:05.445Z,88.20
2023-05-18T09:15:35.378Z,88.50
2023-05-18T09:18:05.492Z,88.10
2023-05-18T09:20:34.078Z,88.20
2023-05-18T09:23:02.506Z,89.20
2023-05-18T09:25:35.790Z,88.40
2023-05-18T09:28:05.164Z,87.20
2023-05-18T09:30:42.235Z,87.20
2023-05-18T09:33:19.164Z,87.00
2023-05-18T09:35:48.107Z,87.40
2023-05-18T09:38:21.952Z,87.70
2023-05-18T09:40:51.863Z,85.60
2023-05-18T09:43:20.818Z,85.80
2023-05-18T09:45:50.829Z,85.80
2023-05-18T09:48:22.161Z,86.30
2023-05-18T09:50:52.646Z,84.80
2023-05-18T09:53:21.010Z,84.70
2023-05-18T09:55:51.377Z,85.00
2023-05-18T09:58:19.945Z,84.50
2023-05-18T10:00:52.002Z,84.20
2023-05-18T10:03:24.695Z,83.70
2023-05-18T10:05:53.381Z,84.10
2023-05-18T10:08:21.797Z,83.90
2023-05-18T10:10:52.586Z,84.00
2023-05-18T10:13:21.079Z,84.00
2023-05-18T10:15:53.967Z,83.00
2023-05-18T10:18:26.739Z,83.40
2023-05-18T10:20:59.191Z,83.40
2023-05-18T10:23:32.504Z,84.00
2023-05-18T10:26:01.569Z,83.20
2023-05-18T10:28:36.160Z,82.70
2023-05-18T10:31:07.871Z,81.60
2023-05-18T10:33:38.971Z,82.20
2023-05-18T10:36:08.985Z,82.10
2023-05-18T10:38:40.633Z,82.40
2023-05-18T10:41:11.054Z,82.50
2023-05-18T10:43:39.632Z,82.20
2023-05-18T10:46:08.736Z,81.80
2023-05-18T10:48:41.265Z,81.50
2023-05-18T10:51:10.066Z,80.80
2023-05-18T10:53:39.427Z,81.30
2023-05-18T10:56:09.047Z,80.70
2023-05-18T10:58:39.952Z,80.80
2023-05-18T11:01:11.872Z,80.00
2023-05-18T11:03:42.148Z,79.40
2023-05-18T11:06:14.998Z,80.20
2023-05-18T11:08:45.564Z,80.60
2023-05-18T11:11:15.953Z,80.70
2023-05-18T11:13:50.073Z,80.50
2023-05-18T11:16:20.076Z,80.20
2023-05-18T11:18:51.461Z,80.80
2023-05-18T11:21:51.806Z,79.20
2023-05-18T11:24:23.824Z,78.70
2023-05-18T11:26:53.984Z,79.30
2023-05-18T11:29:25.845Z,78.80
2023-05-18T11:31:55.954Z,78.30
2023-05-18T11:34:49.533Z,78.80
2023-05-18T11:37:19.891Z,79.70
2023-05-18T11:40:00.640Z,79.20
2023-05-18T11:42:35.108Z,78.90
2023-05-18T11:45:11.198Z,79.10
2023-05-18T11:47:41.497Z,78.90
2023-05-18T11:50:13.080Z,78.90
2023-05-18T11:52:49.824Z,78.00
2023-05-18T11:55:23.499Z,78.40
2023-05-18T11:57:53.755Z,77.90
2023-05-18T12:00:23.197Z,77.80
2023-05-18T12:02:52.699Z,77.90
2023-05-18T12:05:23.182Z,77.20
2023-05-18T12:07:54.846Z,76.40
2023-05-18T12:10:24.398Z,75.80
2023-05-18T12:12:54.616Z,76.50
2023-05-18T12:15:25.204Z,76.60
2023-05-18T12:17:53.879Z,76.50
2023-05-18T12:20:26.732Z,77.30
2023-05-18T12:22:57.048Z,76.90
2023-05-18T12:25:28.145Z,76.70
2023-05-18T12:27:57.861Z,76.00
2023-05-18T12:30:35.072Z,76.10
2023-05-18T12:33:04.957Z,75.80
2023-05-18T12:35:35.380Z,75.80
2023-05-18T12:38:04.046Z,74.90
2023-05-18T12:40:44.469Z,76.10
2023-05-18T12:43:14.064Z,74.70
2023-05-18T12:45:45.466Z,74.60
2023-05-18T12:48:15.161Z,75.30
2023-05-18T12:50:50.667Z,74.00
2023-05-18T12:53:19.542Z,73.60
2023-05-18T12:55:57.646Z,73.70
2023-05-18T12:58:26.151Z,73.60
2023-05-18T13:00:54.649Z,73.70
2023-05-18T13:03:24.486Z,74.10
2023-05-18T13:06:07.659Z,73.20
2023-05-18T13:08:37.939Z,73.00
2023-05-18T13:11:14.273Z,72.40
2023-05-18T13:14:02.285Z,72.40
2023-05-18T13:16:31.596Z,72.10
2023-05-18T13:19:02.122Z,72.10
2023-05-18T13:21:32.068Z,72.60
2023-05-18T13:24:00.951Z,72.10
2023-05-18T13:26:29.534Z,72.40
2023-05-18T13:29:00.254Z,71.20
2023-05-18T13:31:29.841Z,70.90
2023-05-18T13:33:58.372Z,71.40
2023-05-18T13:36:29.720Z,70.60
2023-05-18T13:38:59.640Z,70.20
2023-05-18T13:41:28.417Z,69.50
2023-05-18T13:43:56.876Z,70.50
2023-05-18T13:46:25.688Z,70.40
2023-05-18T13:48:54.243Z,70.60
2023-05-18T13:51:22.896Z,69.50
2023-05-18T13:53:51.372Z,69.60
2023-05-18T13:56:21.340Z,70.30
2023-05-18T13:58:50.161Z,69.20
2023-05-18T14:01:19.078Z,68.70
2023-05-18T14:03:47.716Z,69.00
2023-05-18T14:06:16.251Z,69.00
2023-05-18T14:08:44.722Z,69.60
2023-05-18T14:11:13.117Z,68.00
2023-05-18T14:13:42.831Z,68.20
2023-05-18T14:16:11.253Z,67.80
2023-05-18T14:18:39.697Z,68.90
2023-05-18T14:21:08.109Z,68.60
2023-05-18T14:23:36.506Z,68.20
2023-05-18T14:26:04.940Z,68.00
2023-05-18T14:28:33.334Z,67.80
2023-05-18T14:31:03.082Z,68.00
2023-05-18T14:33:31.489Z,67.30
2023-05-18T14:36:00.792Z,68.00
2023-05-18T14:38:29.139Z,66.90
2023-05-18T14:40:57.452Z,66.60
2023-05-18T14:43:25.801Z,66.20
2023-05-18T14:46:07.488Z,66.30
2023-05-18T14:48:38.591Z,66.70
2023-05-18T14:51:07.049Z,66.00
2023-05-18T14:53:35.457Z,67.50
2023-05-18T14:56:06.222Z,66.50
2023-05-18T14:58:34.636Z,65.90
2023-05-18T15:01:03.415Z,66.00
2023-05-18T15:03:31.875Z,66.40
2023-05-18T15:06:01.837Z,66.00
2023-05-18T15:08:30.194Z,65.70
2023-05-18T15:10:58.648Z,65.90
2023-05-18T15:13:27.032Z,65.90
2023-05-18T15:15:55.676Z,65.70
2023-05-18T15:18:24.108Z,65.30
2023-05-18T15:20:52.501Z,65.60
2023-05-18T15:23:22.229Z,65.30
2023-05-18T15:25:52.510Z,63.80
2023-05-18T15:28:20.858Z,64.10
2023-05-18T15:30:49.192Z,64.90
2023-05-18T15:33:17.550Z,65.00
2023-05-18T15:35:45.926Z,64.70
2023-05-18T15:38:14.281Z,63.90
2023-05-18T15:40:46.794Z,64.10
2023-05-18T15:43:15.278Z,64.20
2023-05-18T15:45:43.782Z,64.60
2023-05-18T15:48:12.212Z,63.20
2023-05-18T15:50:40.670Z,63.90
2023-05-18T15:53:09.024Z,63.10
2023-05-18T15:55:37.353Z,63.60
2023-05-18T15:58:07.103Z,63.30
2023-05-18T16:00:35.513Z,62.50
2023-05-18T16:03:04.008Z,62.80
2023-05-18T16:05:32.423Z,61.90
2023-05-18T16:08:00.880Z,62.00
2023-05-18T16:10:29.829Z,61.90
2023-05-18T16:13:04.207Z,62.30
2023-05-18T16:15:35.160Z,61.40
2023-05-18T16:18:04.118Z,62.10
2023-05-18T16:20:32.707Z,62.30
2023-05-18T16:23:01.273Z,61.80
2023-05-18T16:25:29.863Z,61.20
2023-05-18T16:27:58.317Z,61.30
2023-05-18T16:30:26.860Z,61.20
2023-05-18T16:32:56.594Z,61.40
2023-05-18T16:35:25.018Z,60.80
2023-05-18T16:37:53.374Z,60.70
2023-05-18T16:40:21.874Z,61.40
2023-05-18T16:42:50.197Z,61.20
2023-05-18T16:45:18.618Z,60.50
2023-05-18T16:47:47.026Z,60.40
2023-05-18T16:50:16.848Z,60.70
2023-05-18T16:52:45.229Z,60.00
2023-05-18T16:55:13.654Z,60.50
2023-05-18T16:57:43.407Z,60.40
2023-05-18T17:00:13.492Z,60.60
2023-05-18T17:02:42.079Z,60.00
2023-05-18T17:05:11.392Z,60.10
2023-05-18T17:07:41.125Z,59.90
2023-05-18T17:10:19.611Z,59.80
2023-05-18T17:12:48.112Z,60.10
2023-05-18T17:15:16.527Z,59.70
2023-05-18T17:17:45.627Z,59.70
2023-05-18T17:20:14.131Z,60.50
2023-05-18T17:22:43.932Z,59.90
2023-05-18T17:25:12.526Z,59.10
2023-05-18T17:27:40.911Z,60.00
2023-05-18T17:30:11.638Z,60.20
2023-05-18T17:32:40.268Z,60.40
2023-05-18T17:35:11.199Z,59.50
2023-05-18T17:37:41.413Z,59.90
2023-05-18T17:40:12.877Z,59.70
2023-05-18T17:42:41.321Z,59.20
2023-05-18T17:45:11.466Z,59.40
2023-05-18T17:47:41.769Z,59.30
2023-05-18T17:50:13.386Z,59.50
2023-05-18T17:52:41.998Z,59.30
2023-05-18T17:55:11.865Z,59.30
2023-05-18T17:57:45.203Z,59.40
2023-05-18T18:00:16.086Z,60.20
2023-05-18T18:02:44.482Z,59.40
2023-05-18T18:05:13.080Z,59.50
2023-05-18T18:07:41.490Z,59.90
2023-05-18T18:10:12.475Z,60.00
2023-05-18T18:12:40.961Z,60.60
2023-05-18T18:15:11.361Z,60.40
2023-05-18T18:17:39.803Z,60.70
2023-05-18T18:20:10.454Z,61.30
2023-05-18T18:22:39.001Z,61.50
2023-05-18T18:25:07.976Z,61.50
2023-05-18T18:27:37.756Z,61.70
2023-05-18T18:30:07.625Z,62.00
2023-05-18T18:32:36.043Z,62.70
2023-05-18T18:35:04.731Z,62.90
2023-05-18T18:37:33.237Z,63.10
2023-05-18T18:40:01.570Z,63.40
2023-05-18T18:42:29.939Z,63.50
2023-05-18T18:44:59.758Z,64.20
2023-05-18T18:47:28.228Z,64.10
2023-05-18T18:49:56.671Z,64.40
2023-05-18T18:52:25.085Z,64.70
2023-05-18T18:54:53.883Z,65.10
2023-05-18T18:57:22.623Z,65.10
2023-05-18T18:59:51.781Z,65.50
2023-05-18T19:02:22.543Z,65.60
2023-05-18T19:04:50.993Z,66.20
2023-05-18T19:07:19.444Z,66.30
2023-05-18T19:09:49.536Z,66.40
2023-05-18T19:12:17.997Z,66.60
2023-05-18T19:14:46.405Z,65.90
2023-05-18T19:17:14.799Z,66.50
2023-05-18T19:19:44.601Z,66.90
2023-05-18T19:22:14.426Z,67.10
2023-05-18T19:24:43.070Z,66.50
2023-05-18T19:27:11.427Z,67.50
2023-05-18T19:29:39.797Z,67.60
2023-05-18T19:32:08.696Z,67.80
2023-05-18T19:34:37.344Z,68.00
2023-05-18T19:37:07.192Z,68.00
2023-05-18T19:39:35.601Z,68.60
2023-05-18T19:42:04.665Z,68.50
2023-05-18T19:44:33.151Z,69.90
2023-05-18T19:47:01.487Z,69.30
2023-05-18T19:49:31.308Z,69.50
2023-05-18T19:51:59.668Z,69.50
2023-05-18T19:54:29.417Z,70.00
2023-05-18T19:56:57.827Z,70.30
2023-05-18T19:59:26.378Z,70.50
2023-05-18T20:01:56.473Z,70.80
2023-05-18T20:04:25.233Z,70.90
2023-05-18T20:06:54.009Z,71.20
2023-05-18T20:09:23.160Z,71.20
2023-05-18T20:11:54.420Z,71.20
2023-05-18T20:14:23.073Z,71.90
2023-05-18T20:16:52.633Z,72.00
2023-05-18T20:19:22.179Z,71.80
2023-05-18T20:21:50.744Z,71.90
2023-05-18T20:24:19.098Z,72.60
2023-05-18T20:26:47.467Z,72.80
2023-05-18T20:29:17.171Z,73.20
2023-05-18T20:31:45.721Z,73.60
2023-05-18T20:34:14.102Z,73.50
2023-05-18T20:36:42.528Z,73.80
2023-05-18T20:39:10.909Z,73.80
2023-05-18T20:41:40.213Z,74.00
2023-05-18T20:44:11.264Z,73.60
2023-05-18T20:46:42.708Z,73.90
2023-05-18T20:49:13.111Z,74.30
2023-05-18T20:51:41.561Z,75.20
2023-05-18T20:54:10.055Z,74.40
2023-05-18T20:56:38.474Z,74.60
2023-05-18T20:59:06.932Z,74.70
2023-05-18T21:01:39.247Z,75.00
2023-05-18T21:04:12.027Z,75.10
2023-05-18T21:06:43.606Z,75.60
2023-05-18T21:09:12.154Z,75.30
2023-05-18T21:11:41.286Z,75.50
2023-05-18T21:14:09.772Z,76.00
2023-05-18T21:16:38.253Z,75.90
2023-05-18T21:19:08.026Z,75.90
2023-05-18T21:21:36.851Z,75.90
2023-05-18T21:24:05.615Z,76.00
2023-05-18T21:26:34.336Z,76.20
2023-05-18T21:29:02.815Z,76.30
2023-05-18T21:31:31.273Z,76.40
2023-05-18T21:33:59.821Z,76.30
2023-05-18T21:36:36.488Z,76.50
2023-05-18T21:39:09.060Z,77.00
2023-05-18T21:41:40.283Z,77.20
2023-05-18T21:44:08.690Z,77.10
2023-05-18T21:46:38.082Z,76.90
2023-05-18T21:49:08.439Z,77.30
2023-05-18T21:51:38.279Z,77.30
2023-05-18T21:54:06.821Z,76.70
2023-05-18T21:56:36.905Z,76.60
2023-05-18T21:59:05.467Z,76.70
2023-05-18T22:01:34.252Z,77.10
2023-05-18T22:04:02.751Z,77.20
2023-05-18T22:06:31.341Z,77.60
2023-05-18T22:09:01.221Z,77.50
2023-05-18T22:11:29.658Z,77.80
2023-05-18T22:13:58.018Z,77.80
2023-05-18T22:16:26.691Z,77.70
2023-05-18T22:18:55.254Z,77.80
2023-05-18T22:21:23.730Z,78.00
2023-05-18T22:23:52.255Z,77.80
2023-05-18T22:26:22.338Z,78.00
2023-05-18T22:28:50.997Z,78.30
2023-05-18T22:31:19.478Z,77.20
2023-05-18T22:33:47.847Z,77.70
2023-05-18T22:36:18.099Z,77.70
2023-05-18T22:38:46.580Z,77.80
2023-05-18T22:41:15.004Z,78.10
2023-05-18T22:43:44.715Z,77.30
2023-05-18T22:46:13.347Z,77.30
2023-05-18T22:48:41.863Z,77.50
2023-05-18T22:51:10.309Z,77.70
2023-05-18T22:53:38.829Z,77.90
2023-05-18T22:56:07.960Z,78.00
2023-05-18T22:58:36.354Z,77.20
2023-05-18T23:01:06.119Z,77.70
2023-05-18T23:03:34.557Z,78.00
2023-05-18T23:06:03.406Z,77.20
2023-05-18T23:08:32.114Z,77.50
2023-05-18T23:11:01.797Z,76.70
2023-05-18T23:13:32.965Z,77.20
2023-05-18T23:16:01.877Z,77.70
2023-05-18T23:18:31.617Z,77.80
2023-05-18T23:21:00.047Z,77.90
2023-05-18T23:23:28.387Z,78.30
2023-05-18T23:25:56.781Z,78.60
2023-05-18T23:28:25.177Z,78.30
2023-05-18T23:30:53.516Z,78.00
2023-05-18T23:33:22.654Z,78.40
2023-05-18T23:35:53.438Z,78.50
2023-05-18T23:38:28.793Z,78.30
2023-05-18T23:40:58.010Z,78.80
2023-05-18T23:43:27.067Z,78.60
2023-05-18T23:45:56.283Z,78.60
2023-05-18T23:48:25.366Z,78.50
2023-05-18T23:50:59.862Z,78.20
2023-05-18T23:53:30.301Z,77.80
2023-05-18T23:56:00.098Z,78.20
2023-05-18T23:58:31.698Z,77.80
